Time;durP1;ratioP1;P1;durP2;ratioP2;P2;SDS_P1;SDS_P2;PMS_P1;PMS_P2;Temp;Humidity;BMP_temperature;BMP_pressure;BME280_temperature;BME280_humidity;BME280_pressure;Samples;Min_cycle;Max_cycle;Signal;HPM_P1;HPM_P2
2022/09/18 00:00:58;;;;;;;3.37;1.00;;;13.30;99.90;;;;;;7399337;19;20229;-80
2022/09/18 00:03:24;;;;;;;3.03;0.80;;;13.30;99.90;;;;;;7398228;19;20940;-82
2022/09/18 00:05:50;;;;;;;3.63;1.00;;;13.30;99.90;;;;;;7398731;19;20154;-80
2022/09/18 00:08:15;;;;;;;3.77;0.90;;;13.40;99.90;;;;;;7395966;19;20151;-81
2022/09/18 00:10:45;;;;;;;3.67;1.00;;;13.50;99.90;;;;;;7397338;19;20137;-80
2022/09/18 00:13:13;;;;;;;2.50;1.00;;;13.50;99.90;;;;;;7396933;19;20142;-82
2022/09/18 00:15:39;;;;;;;3.67;0.90;;;13.50;99.90;;;;;;7395784;19;20178;-80
2022/09/18 00:18:06;;;;;;;3.33;0.90;;;13.40;99.90;;;;;;7397575;19;20138;-80
2022/09/18 00:20:34;;;;;;;2.07;0.80;;;13.50;99.90;;;;;;7397117;19;20607;-80
2022/09/18 00:23:00;;;;;;;1.73;0.93;;;13.50;99.90;;;;;;7399233;19;20151;-80
2022/09/18 00:25:26;;;;;;;3.10;0.63;;;13.10;99.90;;;;;;7397297;19;20142;-80
2022/09/18 00:27:52;;;;;;;3.40;0.73;;;12.90;99.90;;;;;;7395821;19;20134;-80
2022/09/18 00:30:18;;;;;;;4.27;0.90;;;12.90;99.90;;;;;;7395361;19;20537;-82
2022/09/18 00:32:43;;;;;;;2.60;0.90;;;13.00;99.90;;;;;;7395811;19;20142;-80
2022/09/18 00:35:09;;;;;;;3.03;0.90;;;13.10;99.90;;;;;;7395339;19;20160;-81
2022/09/18 00:37:35;;;;;;;4.20;1.40;;;13.00;99.90;;;;;;7395849;19;20150;-81
2022/09/18 00:40:01;;;;;;;2.70;1.13;;;13.30;99.90;;;;;;7394397;19;20153;-81
2022/09/18 00:42:27;;;;;;;1.97;1.00;;;13.40;99.90;;;;;;7396763;19;20161;-81
2022/09/18 00:44:53;;;;;;;1.50;0.80;;;13.40;99.90;;;;;;7395268;19;20489;-81
2022/09/18 00:47:23;;;;;;;2.17;0.83;;;13.30;99.90;;;;;;7395945;19;20472;-81
2022/09/18 00:50:01;;;;;;;2.40;0.90;;;13.30;99.90;;;;;;7395901;19;20215;-80
2022/09/18 00:52:34;;;;;;;1.50;0.80;;;13.30;99.90;;;;;;7396395;19;20156;-82
2022/09/18 00:55:06;;;;;;;5.73;0.90;;;12.90;99.90;;;;;;7393421;19;20491;-82
2022/09/18 00:57:34;;;;;;;1.03;0.70;;;12.90;99.90;;;;;;7396771;19;20154;-82
2022/09/18 01:00:04;;;;;;;2.97;1.00;;;13.00;99.90;;;;;;7396580;19;20139;-82
2022/09/18 01:02:30;;;;;;;2.87;1.07;;;13.10;99.90;;;;;;7396813;19;20139;-79
2022/09/18 01:04:55;;;;;;;3.13;0.87;;;13.20;99.90;;;;;;7395119;19;20141;-81
2022/09/18 01:07:30;;;;;;;1.10;0.80;;;13.20;99.90;;;;;;7395245;19;20138;-81
2022/09/18 01:10:40;;;;;;;2.27;0.93;;;13.40;99.90;;;;;;7393109;19;20161;-82
2022/09/18 01:13:22;;;;;;;1.50;0.90;;;13.20;99.90;;;;;;7397818;19;20589;-82
2022/09/18 01:16:03;;;;;;;2.73;0.83;;;13.10;99.90;;;;;;7398589;19;20138;-82
2022/09/18 01:18:47;;;;;;;3.73;0.87;;;13.30;99.90;;;;;;7396052;19;20151;-81
2022/09/18 01:21:23;;;;;;;2.00;1.00;;;13.40;99.90;;;;;;7394935;19;20139;-80
2022/09/18 01:24:22;;;;;;;1.70;0.70;;;13.30;99.90;;;;;;7393110;19;20134;-81
2022/09/18 01:26:53;;;;;;;3.83;1.00;;;13.10;99.90;;;;;;7397027;19;20138;-80
2022/09/18 01:29:36;;;;;;;3.70;1.60;;;12.90;99.90;;;;;;7387529;19;20154;-81
2022/09/18 01:32:22;;;;;;;2.50;0.70;;;13.10;99.90;;;;;;7396648;19;20141;-82
2022/09/18 01:35:07;;;;;;;0.93;0.63;;;13.10;99.90;;;;;;7393688;19;20153;-81
2022/09/18 01:38:01;;;;;;;2.50;0.80;;;13.20;99.90;;;;;;7394301;19;20138;-81
2022/09/18 01:40:34;;;;;;;1.67;0.60;;;13.10;99.90;;;;;;7393687;19;20366;-80
2022/09/18 01:43:04;;;;;;;2.87;0.83;;;13.10;99.90;;;;;;7394748;19;20130;-80
2022/09/18 01:45:39;;;;;;;1.43;0.87;;;13.00;99.90;;;;;;7393659;19;20516;-80
2022/09/18 01:48:13;;;;;;;2.73;1.10;;;13.10;99.90;;;;;;7394286;19;20182;-80
2022/09/18 01:50:45;;;;;;;3.33;0.70;;;13.10;99.90;;;;;;7394834;19;20175;-81
2022/09/18 01:53:16;;;;;;;2.87;0.77;;;13.10;99.90;;;;;;7395963;19;20138;-81
2022/09/18 01:55:48;;;;;;;2.13;0.83;;;13.20;99.90;;;;;;7390737;19;20154;-81
2022/09/18 01:58:17;;;;;;;1.40;0.77;;;13.20;99.90;;;;;;7393330;19;20145;-80
2022/09/18 02:00:49;;;;;;;2.37;0.87;;;13.20;99.90;;;;;;7391413;19;20170;-82
2022/09/18 02:03:28;;;;;;;2.10;0.83;;;13.10;99.90;;;;;;7393954;19;20145;-81
2022/09/18 02:05:59;;;;;;;3.73;1.00;;;13.00;99.90;;;;;;7396039;19;20138;-80
2022/09/18 02:08:28;;;;;;;1.63;0.83;;;13.10;99.90;;;;;;7390498;19;20146;-81
2022/09/18 02:11:20;;;;;;;1.75;0.82;;;13.00;99.90;;;;;;7392447;19;20154;-82
2022/09/18 02:14:07;;;;;;;3.00;0.70;;;13.00;99.90;;;;;;7390850;19;20150;-81
2022/09/18 02:16:42;;;;;;;1.53;0.60;;;13.10;99.90;;;;;;7392505;19;20895;-82
2022/09/18 02:19:27;;;;;;;2.20;0.73;;;13.00;99.90;;;;;;7390121;19;20142;-81
2022/09/18 02:21:55;;;;;;;3.97;1.20;;;13.20;99.90;;;;;;7392903;19;20134;-81
2022/09/18 02:24:27;;;;;;;2.00;0.70;;;13.30;99.90;;;;;;7391028;19;20190;-81
2022/09/18 02:26:55;;;;;;;4.17;0.80;;;13.30;99.90;;;;;;7393091;19;20143;-81
2022/09/18 02:29:23;;;;;;;3.10;0.90;;;13.40;99.90;;;;;;7390118;19;20204;-80
2022/09/18 02:31:49;;;;;;;1.13;0.70;;;13.40;99.90;;;;;;7393483;19;20134;-82
2022/09/18 02:34:16;;;;;;;2.10;0.80;;;13.50;99.90;;;;;;7392499;19;20159;-81
2022/09/18 02:37:07;;;;;;;1.70;0.87;;;13.40;99.90;;;;;;7393279;19;20138;-76
2022/09/18 02:39:44;;;;;;;2.00;0.90;;;13.20;99.90;;;;;;7391605;19;20231;-77
2022/09/18 02:42:19;;;;;;;3.80;0.80;;;13.10;99.90;;;;;;7393206;19;20760;-77
2022/09/18 02:45:00;;;;;;;2.13;0.60;;;13.20;99.90;;;;;;7391700;19;20948;-78
2022/09/18 02:47:38;;;;;;;1.13;0.73;;;13.20;99.90;;;;;;7389323;19;20139;-78
2022/09/18 02:50:14;;;;;;;1.07;0.67;;;13.20;99.90;;;;;;7392398;19;20190;-77
2022/09/18 02:52:40;;;;;;;2.25;1.00;;;13.20;99.90;;;;;;7392328;19;20161;-78
2022/09/18 02:55:31;;;;;;;1.33;0.73;;;13.20;99.90;;;;;;7392915;19;20619;-78
2022/09/18 02:57:57;;;;;;;1.30;0.60;;;13.00;99.90;;;;;;7390916;19;20150;-77
2022/09/18 03:00:25;;;;;;;0.47;0.47;;;13.10;99.90;;;;;;7390732;19;20499;-77
2022/09/18 03:02:51;;;;;;;1.07;0.70;;;13.00;99.90;;;;;;7392529;19;20142;-78
2022/09/18 03:05:17;;;;;;;1.90;0.80;;;13.00;99.90;;;;;;7390409;19;20542;-77
2022/09/18 03:07:43;;;;;;;2.97;0.77;;;13.00;99.90;;;;;;7390504;19;20154;-77
2022/09/18 03:10:12;;;;;;;1.33;0.60;;;13.00;99.90;;;;;;7388671;19;20141;-77
2022/09/18 03:12:37;;;;;;;1.42;0.80;;;13.00;99.90;;;;;;7390793;19;20576;-77
2022/09/18 03:15:04;;;;;;;2.87;0.77;;;13.00;99.90;;;;;;7391637;19;20158;-78
2022/09/18 03:17:30;;;;;;;2.13;0.80;;;13.10;99.90;;;;;;7389860;19;20800;-78
2022/09/18 03:19:55;;;;;;;0.90;0.50;;;13.10;99.90;;;;;;7389767;19;20165;-78
2022/09/18 03:22:21;;;;;;;2.70;0.50;;;13.10;99.90;;;;;;7391487;19;20134;-78
2022/09/18 03:24:48;;;;;;;1.87;0.70;;;13.10;99.90;;;;;;7389660;19;20181;-78
2022/09/18 03:27:16;;;;;;;3.17;1.03;;;13.10;99.90;;;;;;7389770;19;20135;-77
2022/09/18 03:29:44;;;;;;;1.77;0.50;;;13.30;99.90;;;;;;7388425;19;20511;-77
2022/09/18 03:32:10;;;;;;;2.83;0.80;;;13.10;99.90;;;;;;7389703;19;20139;-77
2022/09/18 03:34:37;;;;;;;2.30;1.00;;;12.90;99.90;;;;;;7397413;19;20135;-76
2022/09/18 03:37:03;;;;;;;1.57;0.57;;;13.00;99.90;;;;;;7396248;19;20138;-78
2022/09/18 03:39:28;;;;;;;1.57;0.60;;;12.90;99.90;;;;;;7394736;19;20226;-77
2022/09/18 03:41:54;;;;;;;0.90;0.60;;;13.00;99.90;;;;;;7398041;19;20491;-77
2022/09/18 03:44:20;;;;;;;1.13;0.67;;;13.00;99.90;;;;;;7397974;19;20226;-77
2022/09/18 03:46:46;;;;;;;1.17;0.60;;;13.10;99.90;;;;;;7395259;19;20147;-78
2022/09/18 03:49:13;;;;;;;2.33;0.70;;;13.10;99.90;;;;;;7394858;19;20226;-77
2022/09/18 03:51:38;;;;;;;0.83;0.50;;;13.10;99.90;;;;;;7395347;19;20734;-78
2022/09/18 03:54:05;;;;;;;1.70;0.70;;;13.20;99.90;;;;;;7395269;19;20141;-77
2022/09/18 03:56:31;;;;;;;1.93;0.83;;;13.20;99.90;;;;;;7394696;19;20173;-77
2022/09/18 03:58:58;;;;;;;1.93;0.83;;;13.20;99.90;;;;;;7394982;19;20150;-78
2022/09/18 04:01:23;;;;;;;1.47;0.70;;;13.10;99.90;;;;;;7397432;19;20146;-78
2022/09/18 04:03:50;;;;;;;1.70;0.70;;;13.10;99.90;;;;;;7397247;19;20241;-77
2022/09/18 04:06:16;;;;;;;0.60;0.57;;;13.00;99.90;;;;;;7394473;19;20157;-78
2022/09/18 04:08:42;;;;;;;1.43;0.50;;;13.10;99.90;;;;;;7396180;19;20130;-78
2022/09/18 04:11:08;;;;;;;0.70;0.40;;;12.80;99.90;;;;;;7395546;19;20146;-77
2022/09/18 04:13:33;;;;;;;1.87;0.50;;;13.10;99.90;;;;;;7395434;19;20135;-78
2022/09/18 04:15:59;;;;;;;0.53;0.40;;;13.10;99.90;;;;;;7395257;19;20134;-77
2022/09/18 04:18:25;;;;;;;2.07;0.80;;;13.00;99.90;;;;;;7394035;19;20163;-77
2022/09/18 04:20:51;;;;;;;0.73;0.60;;;13.10;99.90;;;;;;7396296;19;20500;-77
2022/09/18 04:23:17;;;;;;;1.47;0.60;;;13.00;99.90;;;;;;7397317;19;20129;-78
2022/09/18 04:25:43;;;;;;;0.87;0.57;;;13.00;99.90;;;;;;7392306;19;20163;-77
2022/09/18 04:28:09;;;;;;;0.40;0.40;;;12.70;99.90;;;;;;7393414;19;20190;-78
2022/09/18 04:30:36;;;;;;;2.83;0.60;;;12.70;99.90;;;;;;7395490;19;20165;-77
2022/09/18 04:33:02;;;;;;;1.17;0.70;;;12.80;99.90;;;;;;7395281;19;20576;-78
2022/09/18 04:35:28;;;;;;;1.90;0.77;;;12.90;99.90;;;;;;7393999;19;20145;-77
2022/09/18 04:37:54;;;;;;;1.53;0.63;;;13.00;99.90;;;;;;7393384;19;20135;-77
2022/09/18 04:40:20;;;;;;;2.27;0.83;;;12.80;99.90;;;;;;7395119;19;20928;-78
2022/09/18 04:42:45;;;;;;;0.83;0.57;;;12.90;99.90;;;;;;7396007;19;20622;-78
2022/09/18 04:45:11;;;;;;;0.77;0.60;;;12.70;99.90;;;;;;7392863;19;20184;-77
2022/09/18 04:47:37;;;;;;;1.70;0.70;;;12.70;99.90;;;;;;7395479;19;20131;-78
2022/09/18 04:50:07;;;;;;;1.23;0.60;;;12.70;99.90;;;;;;7395153;19;20138;-78
2022/09/18 04:52:35;;;;;;;1.60;0.60;;;12.60;99.90;;;;;;7392378;19;20153;-77
2022/09/18 04:55:02;;;;;;;1.10;0.57;;;12.70;99.90;;;;;;7394962;19;20139;-78
2022/09/18 04:57:28;;;;;;;0.67;0.50;;;12.80;99.90;;;;;;7395850;19;20159;-78
2022/09/18 04:59:53;;;;;;;0.60;0.53;;;12.60;99.90;;;;;;7393451;19;20162;-77
2022/09/18 05:02:19;;;;;;;2.00;0.53;;;12.80;99.90;;;;;;7393327;19;20142;-78
2022/09/18 05:04:45;;;;;;;2.77;0.63;;;12.90;99.90;;;;;;7395979;19;20524;-78
2022/09/18 05:07:11;;;;;;;2.00;0.70;;;13.00;99.90;;;;;;7395781;19;20143;-78
2022/09/18 05:09:36;;;;;;;0.97;0.70;;;13.00;99.90;;;;;;7391954;19;20151;-78
2022/09/18 05:12:02;;;;;;;1.90;0.57;;;13.00;99.90;;;;;;7393580;19;20135;-78
2022/09/18 05:14:28;;;;;;;1.03;0.70;;;12.80;99.90;;;;;;7393712;19;20649;-77
2022/09/18 05:16:55;;;;;;;1.47;0.63;;;12.70;99.90;;;;;;7387212;19;20131;-77
2022/09/18 05:19:21;;;;;;;4.37;0.90;;;12.90;99.90;;;;;;7395344;19;20690;-77
2022/09/18 05:21:50;;;;;;;0.70;0.70;;;13.00;99.90;;;;;;7393940;19;20210;-78
2022/09/18 05:24:16;;;;;;;2.83;1.00;;;13.00;99.90;;;;;;7394283;19;20643;-78
2022/09/18 05:26:46;;;;;;;1.60;0.70;;;13.00;99.90;;;;;;7394314;19;20509;-77
2022/09/18 05:29:11;;;;;;;2.70;0.80;;;13.20;99.90;;;;;;7391258;19;20143;-77
2022/09/18 05:31:37;;;;;;;1.50;0.60;;;13.00;99.90;;;;;;7394471;19;20139;-78
2022/09/18 05:34:03;;;;;;;1.90;0.60;;;13.00;99.90;;;;;;7393753;19;20495;-77
2022/09/18 05:36:29;;;;;;;0.83;0.50;;;13.00;99.90;;;;;;7394185;19;20647;-78
2022/09/18 05:38:54;;;;;;;1.57;0.70;;;13.10;99.90;;;;;;7392848;19;20158;-78
2022/09/18 05:41:20;;;;;;;1.50;0.70;;;13.30;99.90;;;;;;7391450;19;20155;-77
2022/09/18 05:43:46;;;;;;;2.97;0.60;;;13.20;99.90;;;;;;7393488;19;20131;-77
2022/09/18 05:46:13;;;;;;;1.63;0.63;;;13.20;99.90;;;;;;7392951;19;20170;-77
2022/09/18 05:48:39;;;;;;;1.30;0.70;;;13.00;99.90;;;;;;7389188;19;20138;-78
2022/09/18 05:51:05;;;;;;;1.07;0.93;;;13.00;99.90;;;;;;7391944;19;20160;-77
2022/09/18 05:53:30;;;;;;;1.00;0.60;;;13.00;99.90;;;;;;7390652;19;20158;-78
2022/09/18 05:55:58;;;;;;;2.77;1.07;;;13.00;99.90;;;;;;7391198;19;20144;-78
2022/09/18 05:58:24;;;;;;;1.17;0.90;;;13.10;99.90;;;;;;7391326;19;20139;-78
2022/09/18 06:00:51;;;;;;;1.27;0.47;;;13.10;99.90;;;;;;7393791;19;20141;-78
2022/09/18 06:03:17;;;;;;;1.60;0.70;;;13.10;99.90;;;;;;7393481;19;20508;-78
2022/09/18 06:05:49;;;;;;;1.63;0.70;;;13.10;99.90;;;;;;7392782;19;20157;-78
2022/09/18 06:08:15;;;;;;;1.83;0.80;;;13.00;99.90;;;;;;7392318;19;20138;-79
2022/09/18 06:10:41;;;;;;;0.73;0.73;;;13.10;99.90;;;;;;7391615;19;20142;-78
2022/09/18 06:13:11;;;;;;;0.52;0.52;;;12.90;99.90;;;;;;7394328;19;20488;-78
2022/09/18 06:15:36;;;;;;;1.20;0.60;;;12.60;99.90;;;;;;7392078;19;20214;-79
2022/09/18 06:18:04;;;;;;;2.50;0.80;;;12.80;99.90;;;;;;7391301;19;20603;-79
2022/09/18 06:20:30;;;;;;;0.63;0.60;;;13.00;99.90;;;;;;7394497;19;20163;-78
2022/09/18 06:23:00;;;;;;;0.80;0.63;;;12.80;99.90;;;;;;7392666;19;20139;-78
2022/09/18 06:25:27;;;;;;;1.77;0.80;;;12.80;99.90;;;;;;7392929;19;20142;-78
2022/09/18 06:27:57;;;;;;;0.63;0.60;;;12.90;99.90;;;;;;7391455;19;20171;-77
2022/09/18 06:30:29;;;;;;;1.83;0.87;;;13.00;99.90;;;;;;7392667;19;20126;-77
2022/09/18 06:32:55;;;;;;;1.97;0.60;;;13.00;99.90;;;;;;7391508;19;20587;-78
2022/09/18 06:35:22;;;;;;;1.93;0.80;;;13.10;99.90;;;;;;7391518;19;20631;-78
2022/09/18 06:37:48;;;;;;;1.57;1.07;;;13.10;99.90;;;;;;7392632;19;20717;-78
2022/09/18 06:40:13;;;;;;;2.87;1.00;;;13.00;99.90;;;;;;7392547;19;20141;-77
2022/09/18 06:42:39;;;;;;;0.97;0.53;;;12.90;99.90;;;;;;7390638;19;20126;-78
2022/09/18 06:45:07;;;;;;;1.27;0.70;;;12.80;99.90;;;;;;7392506;19;20151;-78
2022/09/18 06:47:32;;;;;;;1.40;0.70;;;12.80;99.90;;;;;;7390863;19;20161;-79
2022/09/18 06:49:58;;;;;;;1.20;0.70;;;12.90;99.90;;;;;;7389697;19;20131;-79
2022/09/18 06:52:24;;;;;;;1.47;0.80;;;12.90;99.90;;;;;;7393098;19;20647;-79
2022/09/18 06:54:49;;;;;;;1.77;0.90;;;13.00;99.90;;;;;;7392280;19;20225;-77
2022/09/18 06:57:15;;;;;;;2.87;1.10;;;13.20;99.90;;;;;;7389021;19;20210;-78
2022/09/18 06:59:41;;;;;;;4.60;1.00;;;13.00;99.90;;;;;;7389720;19;20141;-79
2022/09/18 07:02:14;;;;;;;1.03;0.70;;;13.10;99.90;;;;;;7389771;19;20164;-78
2022/09/18 07:04:40;;;;;;;1.97;1.10;;;13.00;99.90;;;;;;7392753;19;20155;-79
2022/09/18 07:07:06;;;;;;;1.33;1.10;;;12.90;99.90;;;;;;7391561;19;20138;-77
2022/09/18 07:09:32;;;;;;;1.13;0.90;;;13.10;99.90;;;;;;7388662;19;20127;-76
2022/09/18 07:11:58;;;;;;;1.40;1.00;;;13.10;99.90;;;;;;7389531;19;20614;-77
2022/09/18 07:14:24;;;;;;;2.20;1.43;;;13.10;99.90;;;;;;7388939;19;20861;-77
2022/09/18 07:16:51;;;;;;;2.50;1.07;;;13.20;99.90;;;;;;7390796;19;20158;-77
2022/09/18 07:19:17;;;;;;;3.33;0.97;;;13.20;99.90;;;;;;7390371;19;20155;-76
2022/09/18 07:21:42;;;;;;;2.07;1.00;;;13.40;99.90;;;;;;7390738;19;20608;-77
2022/09/18 07:24:08;;;;;;;1.27;1.00;;;13.40;99.90;;;;;;7390570;19;20588;-77
2022/09/18 07:26:34;;;;;;;1.97;0.70;;;13.40;99.90;;;;;;7391495;19;20142;-77
2022/09/18 07:29:00;;;;;;;2.47;1.00;;;13.40;99.90;;;;;;7387813;19;20134;-77
2022/09/18 07:31:26;;;;;;;2.83;0.70;;;13.50;99.90;;;;;;7392223;19;20154;-77
2022/09/18 07:33:52;;;;;;;1.57;0.90;;;13.50;99.90;;;;;;7389079;19;20142;-76
2022/09/18 07:36:19;;;;;;;1.30;0.90;;;13.60;99.90;;;;;;7388373;19;20238;-77
2022/09/18 07:38:51;;;;;;;4.77;1.00;;;13.50;99.90;;;;;;7388790;19;20142;-77
2022/09/18 07:41:17;;;;;;;2.87;1.07;;;13.60;99.90;;;;;;7392065;19;20241;-77
2022/09/18 07:43:43;;;;;;;1.70;0.80;;;13.50;99.90;;;;;;7389248;19;20158;-77
2022/09/18 07:46:09;;;;;;;2.87;0.83;;;13.60;99.90;;;;;;7387841;19;20127;-76
2022/09/18 07:48:35;;;;;;;2.33;0.80;;;13.40;99.90;;;;;;7392540;19;20135;-78
2022/09/18 07:51:02;;;;;;;1.47;0.60;;;13.50;99.90;;;;;;7389451;19;20134;-78
2022/09/18 07:53:29;;;;;;;1.80;0.97;;;13.50;99.90;;;;;;7393269;19;20145;-77
2022/09/18 07:55:56;;;;;;;1.60;0.80;;;13.60;99.90;;;;;;7389933;19;20166;-77
2022/09/18 07:58:22;;;;;;;3.33;1.10;;;13.60;99.90;;;;;;7389845;19;20145;-77
2022/09/18 08:00:49;;;;;;;1.83;0.80;;;13.60;99.90;;;;;;7392511;19;20581;-77
2022/09/18 08:03:15;;;;;;;4.70;0.80;;;13.20;99.90;;;;;;7390156;19;20210;-77
2022/09/18 08:05:41;;;;;;;1.73;0.77;;;13.30;99.90;;;;;;7390963;19;20138;-80
2022/09/18 08:08:11;;;;;;;0.67;0.60;;;13.40;99.90;;;;;;7389648;19;20134;-77
2022/09/18 08:10:38;;;;;;;2.33;0.87;;;13.40;99.90;;;;;;7392339;19;20561;-81
2022/09/18 08:13:05;;;;;;;2.43;0.50;;;13.10;99.90;;;;;;7388620;19;20594;-77
2022/09/18 08:15:32;;;;;;;1.47;0.77;;;13.10;99.90;;;;;;7388659;19;20162;-77
2022/09/18 08:17:57;;;;;;;3.30;1.07;;;13.20;99.90;;;;;;7384735;19;20153;-78
2022/09/18 08:20:23;;;;;;;1.20;0.70;;;13.00;99.90;;;;;;7395613;19;20730;-80
2022/09/18 08:22:49;;;;;;;3.90;0.80;;;13.20;99.90;;;;;;7394676;19;20127;-81
2022/09/18 08:25:16;;;;;;;2.37;0.83;;;13.20;99.90;;;;;;7393500;19;20563;-79
2022/09/18 08:27:42;;;;;;;1.20;0.80;;;12.90;99.90;;;;;;7397364;19;20131;-79
2022/09/18 08:30:12;;;;;;;0.93;0.60;;;12.90;99.90;;;;;;7395484;19;20156;-80
2022/09/18 08:32:38;;;;;;;1.97;0.80;;;13.10;99.90;;;;;;7393112;19;20139;-79
2022/09/18 08:35:06;;;;;;;1.97;1.00;;;13.40;99.90;;;;;;7397947;19;20506;-79
2022/09/18 08:37:32;;;;;;;1.27;0.80;;;13.20;99.90;;;;;;7394868;19;20138;-77
2022/09/18 08:39:58;;;;;;;2.43;0.90;;;13.30;99.90;;;;;;7393867;19;20135;-78
2022/09/18 08:42:32;;;;;;;2.43;0.67;;;13.30;99.90;;;;;;7394514;19;20138;-77
2022/09/18 08:45:21;;;;;;;1.53;0.60;;;13.20;99.90;;;;;;7394748;19;20146;-77
2022/09/18 08:48:03;;;;;;;3.50;0.83;;;13.10;99.90;;;;;;7395045;19;20146;-77
2022/09/18 08:50:37;;;;;;;2.47;0.80;;;13.40;99.90;;;;;;7394872;19;20157;-81
2022/09/18 08:53:19;;;;;;;3.57;1.03;;;13.60;99.90;;;;;;7394902;19;20168;-80
2022/09/18 08:55:47;;;;;;;1.47;0.90;;;13.80;99.90;;;;;;7391634;19;20202;-81
2022/09/18 08:58:17;;;;;;;2.23;1.17;;;13.80;99.90;;;;;;7395628;19;20139;-79
2022/09/18 09:00:47;;;;;;;0.97;0.80;;;14.10;99.90;;;;;;7397445;19;20213;-79
2022/09/18 09:03:40;;;;;;;0.80;0.60;;;14.00;99.90;;;;;;7397980;19;20145;-83
2022/09/18 09:06:13;;;;;;;2.03;0.60;;;13.80;99.90;;;;;;7395258;19;20139;-79
2022/09/18 09:09:10;;;;;;;0.87;0.63;;;13.90;99.90;;;;;;7394470;19;20491;-78
2022/09/18 09:11:47;;;;;;;1.27;0.70;;;13.90;99.90;;;;;;7393295;19;20997;-79
2022/09/18 09:14:40;;;;;;;1.33;0.70;;;13.70;99.90;;;;;;7396897;19;20127;-79
2022/09/18 09:17:15;;;;;;;2.53;1.00;;;13.60;99.90;;;;;;7395693;19;20130;-78
2022/09/18 09:19:50;;;;;;;2.83;1.00;;;13.60;99.90;;;;;;7394916;19;20126;-78
2022/09/18 09:22:32;;;;;;;3.83;1.00;;;13.80;99.90;;;;;;7393892;19;20131;-78
2022/09/18 09:25:18;;;;;;;1.40;0.90;;;13.70;99.90;;;;;;7391355;19;20729;-77
2022/09/18 09:28:05;;;;;;;1.53;0.83;;;13.60;99.90;;;;;;7391380;19;20157;-78
2022/09/18 09:30:39;;;;;;;2.00;1.00;;;13.70;99.90;;;;;;7388819;19;20151;-80
2022/09/18 09:33:20;;;;;;;1.25;0.88;;;13.90;99.90;;;;;;7392060;19;20528;-78
2022/09/18 09:35:49;;;;;;;3.87;0.77;;;13.90;99.90;;;;;;7394681;19;20138;-78
2022/09/18 09:38:33;;;;;;;1.85;1.02;;;13.80;99.90;;;;;;7391620;19;20142;-76
2022/09/18 09:41:26;;;;;;;2.57;0.80;;;13.80;99.90;;;;;;7395324;19;20155;-77
2022/09/18 09:44:15;;;;;;;3.27;1.30;;;13.80;99.90;;;;;;7390696;19;20146;-78
2022/09/18 09:47:02;;;;;;;2.33;1.08;;;14.10;99.90;;;;;;7394306;19;20165;-78
2022/09/18 09:49:53;;;;;;;4.28;1.00;;;14.10;99.90;;;;;;7389093;19;20139;-78
2022/09/18 09:52:25;;;;;;;1.40;0.98;;;14.20;99.90;;;;;;7392975;19;20135;-78
2022/09/18 09:55:00;;;;;;;2.97;0.90;;;14.10;99.90;;;;;;7394118;19;20472;-77
2022/09/18 09:57:39;;;;;;;3.50;0.82;;;14.10;99.90;;;;;;7393729;19;20149;-79
2022/09/18 10:00:13;;;;;;;1.90;1.00;;;14.10;99.90;;;;;;7393037;19;20142;-78
2022/09/18 10:03:05;;;;;;;2.72;0.70;;;14.30;99.90;;;;;;7396043;19;20155;-83
2022/09/18 10:05:38;;;;;;;3.45;1.52;;;14.30;99.90;;;;;;7395394;19;20151;-80
2022/09/18 10:08:30;;;;;;;2.88;0.80;;;14.40;99.90;;;;;;7394010;19;20850;-79
2022/09/18 10:11:00;;;;;;;3.43;0.80;;;14.10;99.90;;;;;;7391689;19;20138;-82
2022/09/18 10:13:48;;;;;;;2.97;0.90;;;14.20;99.90;;;;;;7393655;19;20143;-75
2022/09/18 10:16:22;;;;;;;3.13;0.80;;;14.70;99.90;;;;;;7391077;19;20143;-76
2022/09/18 10:18:49;;;;;;;3.38;0.80;;;14.70;99.90;;;;;;7390376;19;20158;-74
2022/09/18 10:21:24;;;;;;;1.23;0.80;;;14.80;99.90;;;;;;7390816;19;20166;-75
2022/09/18 10:24:12;;;;;;;1.10;0.77;;;14.70;99.90;;;;;;7392537;19;20126;-77
2022/09/18 10:26:47;;;;;;;2.63;0.70;;;14.50;99.90;;;;;;7390925;19;20161;-75
2022/09/18 10:29:16;;;;;;;3.45;0.90;;;14.50;99.90;;;;;;7389351;19;20154;-75
2022/09/18 10:31:54;;;;;;;2.67;1.30;;;14.70;99.90;;;;;;7388891;19;20146;-78
2022/09/18 10:34:36;;;;;;;1.37;0.80;;;14.70;99.90;;;;;;7392234;19;20146;-76
2022/09/18 10:37:02;;;;;;;3.15;0.90;;;14.80;99.90;;;;;;7385858;19;20139;-77
2022/09/18 10:39:31;;;;;;;2.58;0.68;;;14.80;99.90;;;;;;7389910;19;20143;-75
2022/09/18 10:41:59;;;;;;;1.20;0.68;;;14.80;99.90;;;;;;7390354;19;20184;-76
2022/09/18 10:44:28;;;;;;;2.33;0.70;;;15.10;99.90;;;;;;7389735;19;20679;-76
2022/09/18 10:47:02;;;;;;;0.80;0.70;;;15.10;99.90;;;;;;7390599;19;20151;-79
2022/09/18 10:49:55;;;;;;;1.05;0.43;;;14.90;99.90;;;;;;7387045;19;20168;-77
2022/09/18 10:52:25;;;;;;;1.27;0.80;;;14.80;99.90;;;;;;7386555;19;20153;-78
2022/09/18 10:55:05;;;;;;;2.22;0.82;;;15.10;99.90;;;;;;7388484;19;20203;-78
2022/09/18 10:57:33;;;;;;;1.73;0.80;;;15.20;99.90;;;;;;7388366;19;20169;-77
2022/09/18 11:00:02;;;;;;;1.48;0.52;;;15.60;99.90;;;;;;7387396;19;20142;-78
2022/09/18 11:02:34;;;;;;;1.92;0.80;;;15.70;99.90;;;;;;7386465;19;20142;-76
2022/09/18 11:05:01;;;;;;;2.28;0.90;;;15.70;99.90;;;;;;7391997;19;20150;-76
2022/09/18 11:07:27;;;;;;;1.83;0.75;;;15.70;99.90;;;;;;7388975;19;20148;-77
2022/09/18 11:09:53;;;;;;;0.85;0.60;;;15.60;99.90;;;;;;7388509;19;20647;-76
2022/09/18 11:12:22;;;;;;;0.93;0.57;;;15.80;99.90;;;;;;7391097;19;20147;-76
2022/09/18 11:14:57;;;;;;;1.45;0.70;;;15.90;99.90;;;;;;7389531;19;20158;-76
2022/09/18 11:17:28;;;;;;;1.30;0.75;;;16.00;99.90;;;;;;7389055;19;20709;-75
2022/09/18 11:19:57;;;;;;;1.73;0.52;;;16.10;99.90;;;;;;7390330;19;20149;-76
2022/09/18 11:22:38;;;;;;;2.45;0.93;;;16.20;99.90;;;;;;7389588;19;20250;-76
2022/09/18 11:25:16;;;;;;;2.05;0.90;;;16.20;99.90;;;;;;7389524;19;20181;-76
2022/09/18 11:27:46;;;;;;;1.17;0.60;;;16.30;99.90;;;;;;7390714;19;20209;-76
2022/09/18 11:30:23;;;;;;;1.20;0.70;;;16.40;99.90;;;;;;7389226;19;20147;-76
2022/09/18 11:33:11;;;;;;;0.65;0.50;;;16.20;99.90;;;;;;7390005;19;20146;-77
2022/09/18 11:35:44;;;;;;;0.90;0.50;;;16.40;99.90;;;;;;7389439;19;20157;-76
2022/09/18 11:38:14;;;;;;;0.90;0.50;;;16.50;99.90;;;;;;7381443;19;20138;-78
2022/09/18 11:40:50;;;;;;;1.27;0.57;;;16.20;99.90;;;;;;7380902;19;20147;-76
2022/09/18 11:43:21;;;;;;;3.15;0.70;;;16.10;99.90;;;;;;7386803;19;20152;-76
2022/09/18 11:45:54;;;;;;;1.83;0.55;;;16.10;99.90;;;;;;7382226;19;20123;-76
2022/09/18 11:48:51;;;;;;;0.90;0.52;;;16.20;99.90;;;;;;7386452;19;20160;-78
2022/09/18 11:51:29;;;;;;;0.88;0.50;;;16.20;99.90;;;;;;7386803;19;20151;-77
2022/09/18 11:54:06;;;;;;;1.65;0.90;;;16.10;99.90;;;;;;7388916;19;20146;-77
2022/09/18 11:56:39;;;;;;;1.80;0.50;;;16.00;99.90;;;;;;7393757;19;20146;-76
2022/09/18 11:59:18;;;;;;;0.90;0.55;;;15.90;99.90;;;;;;7395066;19;20145;-76
2022/09/18 12:01:48;;;;;;;0.73;0.55;;;16.10;99.90;;;;;;7397123;19;20151;-75
2022/09/18 12:04:43;;;;;;;0.50;0.40;;;16.20;99.90;;;;;;7397136;19;20142;-76
2022/09/18 12:07:27;;;;;;;2.20;0.60;;;16.30;99.90;;;;;;7395904;19;20583;-76
2022/09/18 12:10:05;;;;;;;0.85;0.57;;;16.20;99.90;;;;;;7394131;19;20142;-75
2022/09/18 12:12:53;;;;;;;2.75;0.65;;;16.10;99.90;;;;;;7396536;19;20647;-76
2022/09/18 12:15:23;;;;;;;0.65;0.52;;;16.20;99.90;;;;;;7396433;19;20164;-78
2022/09/18 12:17:56;;;;;;;0.70;0.50;;;16.30;99.90;;;;;;7394656;19;20604;-76
2022/09/18 12:20:29;;;;;;;0.50;0.40;;;16.50;99.90;;;;;;7395815;19;20138;-76
2022/09/18 12:22:58;;;;;;;0.40;0.40;;;16.10;99.90;;;;;;7394124;19;20166;-76
2022/09/18 12:25:49;;;;;;;0.60;0.50;;;16.50;99.90;;;;;;7392264;19;20177;-75
2022/09/18 12:28:33;;;;;;;2.35;0.60;;;16.50;99.90;;;;;;7391961;19;20138;-76
2022/09/18 12:31:27;;;;;;;1.02;0.63;;;16.40;99.90;;;;;;7394421;19;20146;-77
2022/09/18 12:33:57;;;;;;;1.77;0.60;;;16.20;99.90;;;;;;7393853;19;20135;-75
2022/09/18 12:37:00;;;;;;;1.00;0.60;;;16.30;99.90;;;;;;7393389;19;20145;-76
2022/09/18 12:40:04;;;;;;;1.90;0.70;;;16.40;99.90;;;;;;7396368;19;20134;-75
2022/09/18 12:42:57;;;;;;;1.10;0.60;;;16.50;99.90;;;;;;7395680;19;20148;-76
2022/09/18 12:45:55;;;;;;;4.25;0.68;;;16.60;99.90;;;;;;7396762;19;20139;-77
2022/09/18 12:49:06;;;;;;;2.28;0.50;;;16.60;99.90;;;;;;7392040;19;20150;-76
2022/09/18 12:52:13;;;;;;;1.55;0.55;;;16.60;99.90;;;;;;7390029;19;20134;-77
2022/09/18 12:54:58;;;;;;;1.20;0.43;;;16.50;99.90;;;;;;7395387;19;20166;-76
2022/09/18 12:57:55;;;;;;;4.15;0.70;;;16.70;99.90;;;;;;7394082;19;20138;-77
2022/09/18 13:00:21;;;;;;;1.00;0.47;;;16.90;99.90;;;;;;7395257;19;20138;-76
2022/09/18 13:03:28;;;;;;;1.23;0.50;;;16.80;99.90;;;;;;7392761;19;20162;-76
2022/09/18 13:06:11;;;;;;;0.63;0.40;;;16.80;99.90;;;;;;7390999;19;20149;-78
2022/09/18 13:08:54;;;;;;;4.43;0.80;;;16.70;99.90;;;;;;7392191;19;20138;-76
2022/09/18 13:11:41;;;;;;;2.28;0.60;;;16.70;99.90;;;;;;7391510;19;20145;-77
2022/09/18 13:14:25;;;;;;;1.40;0.60;;;16.80;99.90;;;;;;7395082;19;20165;-78